Abbeville, South Carolina
Current Conditions -  °F | °C
As of 9:56 PM on Tuesday 25 Nov 2014 (Local Time) from KGRD Reporting Station
Light Rain Light Rain  
Wind Chill: 50°   Ceiling: 7000
Heat Index: 50°   Visibility: 8mi
Dew Point: 48°   Wind: 0mph
Humidity: 93%   Direction: NA
Pressure: 30.05"   Gusts: NA
Location:  34.18°N, 82.38°W
Report Text: KGRD 260256Z AUTO 00000KT 8SM -RA BKN070 OVC090 10/09 A3005 RMK AO2 SLP175 P0005 60011 T01000089 58002
Loading
Personal Weather Stations






























Interactive Weather Map New forecast layout! Learn more

10-Day Weather Forecast

Advertisements
Track Severe Weather on mobile